createdAt,value
2022-09-26T00:11:02.895Z,100.00
2022-09-26T00:13:32.724Z,100.00
2022-09-26T00:16:00.727Z,100.00
2022-09-26T00:22:29.049Z,100.00
2022-09-26T00:24:59.390Z,100.00
2022-09-26T00:27:27.105Z,100.00
2022-09-26T00:29:54.655Z,100.00
2022-09-26T00:32:22.246Z,100.00
2022-09-26T00:34:50.706Z,100.00
2022-09-26T00:37:18.393Z,100.00
2022-09-26T00:39:47.688Z,100.00
2022-09-26T00:42:16.362Z,100.00
2022-09-26T00:44:46.081Z,100.00
2022-09-26T00:47:23.640Z,100.00
2022-09-26T00:49:57.906Z,100.00
2022-09-26T00:52:32.389Z,100.00
2022-09-26T00:55:04.423Z,100.00
2022-09-26T00:57:45.477Z,100.00
2022-09-26T01:00:15.334Z,100.00
2022-09-26T01:02:45.535Z,100.00
2022-09-26T01:05:16.279Z,100.00
2022-09-26T01:07:44.779Z,100.00
2022-09-26T01:10:13.251Z,100.00
2022-09-26T01:12:41.658Z,100.00
2022-09-26T01:15:10.522Z,100.00
2022-09-26T01:17:40.264Z,100.00
2022-09-26T01:20:33.481Z,100.00
2022-09-26T01:23:32.508Z,100.00
2022-09-26T01:26:12.067Z,100.00
2022-09-26T01:29:02.678Z,100.00
2022-09-26T01:32:17.924Z,100.00
2022-09-26T01:34:57.525Z,100.00
2022-09-26T01:38:09.889Z,100.00
2022-09-26T01:41:06.668Z,100.00
2022-09-26T01:43:40.274Z,100.00
2022-09-26T01:50:53.422Z,100.00
2022-09-26T02:02:33.691Z,100.00
2022-09-26T02:05:07.969Z,100.00
2022-09-26T02:07:56.370Z,100.00
2022-09-26T02:19:44.619Z,100.00
2022-09-26T02:31:21.437Z,100.00
2022-09-26T02:33:51.133Z,100.00
2022-09-26T02:36:21.203Z,100.00
2022-09-26T02:43:22.306Z,100.00
2022-09-26T02:46:06.528Z,100.00
2022-09-26T02:49:04.682Z,100.00
2022-09-26T02:51:49.870Z,100.00
2022-09-26T02:54:29.397Z,100.00
2022-09-26T02:57:16.070Z,100.00
2022-09-26T02:59:59.271Z,100.00
2022-09-26T03:02:30.403Z,100.00
2022-09-26T03:05:20.640Z,100.00
2022-09-26T03:07:56.748Z,100.00
2022-09-26T03:10:28.558Z,100.00
2022-09-26T03:22:09.086Z,100.00
2022-09-26T03:33:47.525Z,100.00
2022-09-26T03:36:16.288Z,100.00
2022-09-26T03:38:44.374Z,100.00
2022-09-26T03:51:07.735Z,100.00
2022-09-26T03:53:38.001Z,100.00
2022-09-26T03:56:20.143Z,100.00
2022-09-26T04:07:55.842Z,100.00
2022-09-26T04:19:34.924Z,100.00
2022-09-26T04:31:13.236Z,100.00
2022-09-26T04:33:49.466Z,100.00
2022-09-26T04:36:18.295Z,100.00
2022-09-26T04:47:55.835Z,100.00
2022-09-26T04:50:26.760Z,100.00
2022-09-26T06:50:57.755Z,100.00
2022-09-26T06:52:25.999Z,100.00
2022-09-26T06:58:33.572Z,100.00
2022-09-26T07:01:11.349Z,100.00
2022-09-26T07:04:06.932Z,100.00
2022-09-26T07:06:40.186Z,100.00
2022-09-26T07:09:13.350Z,100.00
2022-09-26T07:12:14.484Z,100.00
2022-09-26T07:14:43.794Z,100.00
2022-09-26T07:17:20.654Z,100.00
2022-09-26T07:24:59.572Z,100.00
2022-09-26T07:27:54.288Z,100.00
2022-09-26T07:30:40.315Z,100.00
2022-09-26T07:33:16.462Z,96.73
2022-09-26T07:35:48.364Z,89.79
2022-09-26T07:38:16.333Z,90.89
2022-09-26T07:40:44.869Z,96.12
2022-09-26T07:43:21.273Z,86.73
2022-09-26T07:46:13.596Z,86.04
2022-09-26T07:49:04.137Z,93.50
2022-09-26T07:51:54.972Z,84.44
2022-09-26T07:54:25.925Z,79.89
2022-09-26T07:57:19.214Z,73.67
2022-09-26T08:00:13.080Z,73.21
2022-09-26T08:03:01.469Z,72.11
2022-09-26T08:05:31.885Z,71.13
2022-09-26T08:07:59.628Z,72.67
2022-09-26T08:10:53.139Z,84.11
2022-09-26T08:13:50.441Z,74.29
2022-09-26T08:16:23.121Z,71.06
2022-09-26T08:18:54.344Z,68.84
2022-09-26T08:21:23.209Z,62.18
2022-09-26T08:23:53.932Z,57.51
2022-09-26T08:26:44.412Z,60.39
2022-09-26T08:29:24.929Z,56.41
2022-09-26T08:31:54.925Z,57.29
2022-09-26T08:34:25.301Z,56.01
2022-09-26T08:37:12.150Z,56.60
2022-09-26T08:40:00.924Z,56.77
2022-09-26T08:43:04.371Z,57.76
2022-09-26T08:46:51.387Z,51.22
2022-09-26T08:50:11.916Z,47.46
2022-09-26T08:53:03.896Z,50.21
2022-09-26T08:55:40.778Z,52.39
2022-09-26T08:58:37.695Z,54.73
2022-09-26T09:01:13.147Z,60.35
2022-09-26T09:04:25.029Z,53.57
2022-09-26T09:07:04.552Z,49.76
2022-09-26T09:09:32.309Z,51.02
2022-09-26T09:13:02.732Z,47.92
2022-09-26T09:16:17.473Z,47.58
2022-09-26T09:18:59.880Z,45.42
2022-09-26T09:22:00.160Z,48.59
2022-09-26T09:24:46.495Z,46.56
2022-09-26T09:30:32.911Z,44.19
2022-09-26T09:33:26.097Z,44.88
2022-09-26T09:36:18.833Z,45.33
2022-09-26T09:39:08.490Z,39.01
2022-09-26T09:41:59.663Z,42.85
2022-09-26T09:44:46.227Z,39.66
2022-09-26T09:47:18.935Z,43.92
2022-09-26T09:49:49.052Z,48.66
2022-09-26T09:52:47.663Z,50.00
2022-09-26T09:55:31.749Z,52.75
2022-09-26T09:58:18.316Z,54.42
2022-09-26T10:00:54.843Z,50.99
2022-09-26T10:03:51.585Z,51.68
2022-09-26T10:06:44.651Z,49.06
2022-09-26T10:09:35.461Z,52.30
2022-09-26T10:12:36.838Z,55.13
2022-09-26T10:15:48.122Z,52.67
2022-09-26T10:19:02.354Z,55.48
2022-09-26T10:21:35.418Z,58.45
2022-09-26T10:24:06.833Z,54.47
2022-09-26T10:26:49.582Z,51.91
2022-09-26T10:29:35.258Z,56.89
2022-09-26T10:32:03.741Z,55.01
2022-09-26T10:34:34.654Z,55.62
2022-09-26T10:37:25.233Z,55.67
2022-09-26T10:40:19.233Z,55.75
2022-09-26T10:42:47.341Z,54.10
2022-09-26T10:45:17.584Z,53.51
2022-09-26T10:48:07.018Z,53.94
2022-09-26T10:51:07.798Z,53.13
2022-09-26T10:53:40.190Z,50.60
2022-09-26T10:56:13.880Z,52.34
2022-09-26T10:58:46.585Z,54.07
2022-09-26T11:01:26.556Z,51.41
2022-09-26T11:03:59.223Z,52.93
2022-09-26T11:06:43.977Z,49.94
2022-09-26T11:09:20.953Z,52.29
2022-09-26T11:12:25.583Z,52.67
2022-09-26T11:15:01.664Z,53.42
2022-09-26T11:17:50.393Z,51.45
2022-09-26T11:20:47.465Z,56.04
2022-09-26T11:23:35.189Z,57.78
2022-09-26T11:26:49.275Z,55.16
2022-09-26T11:29:58.869Z,55.48
2022-09-26T11:32:32.411Z,53.50
2022-09-26T11:35:45.174Z,53.03
2022-09-26T11:38:55.278Z,53.27
2022-09-26T11:41:38.883Z,50.99
2022-09-26T11:44:39.832Z,54.38
2022-09-26T11:47:54.391Z,50.56
2022-09-26T11:50:51.880Z,51.02
2022-09-26T11:53:46.036Z,49.84
2022-09-26T11:56:46.019Z,48.39
2022-09-26T11:59:32.731Z,48.00
2022-09-26T12:02:18.559Z,50.73
2022-09-26T12:05:00.956Z,50.36
2022-09-26T12:07:52.952Z,50.49
2022-09-26T12:10:54.656Z,52.17
2022-09-26T12:13:49.547Z,51.11
2022-09-26T12:16:55.269Z,52.04
2022-09-26T12:19:32.523Z,49.66
2022-09-26T12:22:30.111Z,48.97
2022-09-26T12:24:57.569Z,49.15
2022-09-26T12:27:30.775Z,51.67
2022-09-26T12:30:19.907Z,49.77
2022-09-26T12:33:07.299Z,52.55
2022-09-26T12:35:45.032Z,50.77
2022-09-26T12:38:25.994Z,48.14
2022-09-26T12:41:02.954Z,49.67
2022-09-26T12:43:33.436Z,49.62
2022-09-26T12:46:25.827Z,48.64
2022-09-26T12:48:53.853Z,48.63
2022-09-26T12:51:46.620Z,52.02
2022-09-26T12:54:16.985Z,49.98
2022-09-26T12:57:04.381Z,48.54
2022-09-26T12:59:58.229Z,48.36
2022-09-26T13:02:46.743Z,53.06
2022-09-26T13:05:51.227Z,50.55
2022-09-26T13:08:37.050Z,52.25
2022-09-26T13:11:22.423Z,50.55
2022-09-26T13:14:16.720Z,49.12
2022-09-26T13:16:53.940Z,50.78
2022-09-26T13:19:35.622Z,52.61
2022-09-26T13:22:10.395Z,51.28
2022-09-26T13:25:02.849Z,51.87
2022-09-26T13:27:47.274Z,54.36
2022-09-26T13:30:18.859Z,54.53
2022-09-26T13:33:03.549Z,51.84
2022-09-26T13:35:35.840Z,52.17
2022-09-26T13:38:41.314Z,52.64
2022-09-26T13:41:55.371Z,51.80
2022-09-26T13:44:44.951Z,50.66
2022-09-26T13:47:29.819Z,50.58
2022-09-26T13:50:29.911Z,50.11
2022-09-26T13:53:10.145Z,50.41
2022-09-26T13:55:37.733Z,47.25
2022-09-26T13:58:19.459Z,50.98
2022-09-26T14:00:53.506Z,50.63
2022-09-26T14:03:21.744Z,50.64
2022-09-26T14:05:51.479Z,49.91
2022-09-26T14:08:43.406Z,50.59
2022-09-26T14:11:34.345Z,48.96
2022-09-26T14:14:17.002Z,48.48
2022-09-26T14:16:45.939Z,48.18
2022-09-26T14:19:39.329Z,47.33
2022-09-26T14:22:19.334Z,47.51
2022-09-26T14:24:50.337Z,47.43
2022-09-26T14:27:17.636Z,48.08
2022-09-26T14:29:53.027Z,46.94
2022-09-26T14:32:37.110Z,48.59
2022-09-26T14:35:17.776Z,46.48
2022-09-26T14:37:49.459Z,47.99
2022-09-26T14:40:27.057Z,46.86
2022-09-26T14:43:25.944Z,47.29
2022-09-26T14:46:03.027Z,47.38
2022-09-26T14:48:42.387Z,46.84
2022-09-26T14:51:17.125Z,49.49
2022-09-26T14:53:47.365Z,49.04
2022-09-26T14:56:17.121Z,49.88
2022-09-26T14:58:45.470Z,49.69
2022-09-26T15:01:18.098Z,49.94
2022-09-26T15:04:03.059Z,49.84
2022-09-26T15:06:38.879Z,48.95
2022-09-26T15:09:37.977Z,50.08
2022-09-26T15:12:22.817Z,49.38
2022-09-26T15:14:52.079Z,49.58
2022-09-26T15:17:33.609Z,50.99
2022-09-26T15:20:05.818Z,50.57
2022-09-26T15:22:34.967Z,50.37
2022-09-26T15:25:23.998Z,50.32
2022-09-26T15:27:55.725Z,50.89
2022-09-26T15:30:35.413Z,50.91
2022-09-26T15:33:04.334Z,50.49
2022-09-26T15:35:32.724Z,51.53
2022-09-26T15:38:09.847Z,50.96
2022-09-26T15:40:37.995Z,50.93
2022-09-26T15:43:16.132Z,53.79
2022-09-26T15:45:46.674Z,52.62
2022-09-26T15:48:20.322Z,51.58
2022-09-26T15:50:54.961Z,51.83
2022-09-26T15:53:41.567Z,52.33
2022-09-26T15:56:43.184Z,52.01
2022-09-26T15:59:13.721Z,51.67
2022-09-26T16:01:44.322Z,51.90
2022-09-26T16:04:23.925Z,52.58
2022-09-26T16:07:19.191Z,52.98
2022-09-26T16:09:53.787Z,53.00
2022-09-26T16:12:23.836Z,52.79
2022-09-26T16:15:09.920Z,54.01
2022-09-26T16:17:49.224Z,56.32
2022-09-26T16:20:17.230Z,56.65
2022-09-26T16:22:46.124Z,56.74
2022-09-26T16:25:19.637Z,55.70
2022-09-26T16:28:11.277Z,58.03
2022-09-26T16:30:45.317Z,58.83
2022-09-26T16:33:26.506Z,60.25
2022-09-26T16:35:54.281Z,61.25
2022-09-26T16:38:28.087Z,60.63
2022-09-26T16:40:59.123Z,62.29
2022-09-26T16:43:30.008Z,61.71
2022-09-26T16:46:17.981Z,62.48
2022-09-26T16:48:51.268Z,62.94
2022-09-26T16:51:36.362Z,64.97
2022-09-26T16:54:20.353Z,64.22
2022-09-26T16:56:52.918Z,65.93
2022-09-26T16:59:29.002Z,65.98
2022-09-26T17:02:00.207Z,67.06
2022-09-26T17:04:32.458Z,71.28
2022-09-26T17:07:09.716Z,70.91
2022-09-26T17:09:37.589Z,68.79
2022-09-26T17:12:27.253Z,69.46
2022-09-26T17:14:56.831Z,70.70
2022-09-26T17:17:28.163Z,68.60
2022-09-26T17:19:59.454Z,69.06
2022-09-26T17:22:28.365Z,68.07
2022-09-26T17:24:56.717Z,71.51
2022-09-26T17:27:33.545Z,71.95
2022-09-26T17:30:03.426Z,72.98
2022-09-26T17:32:36.373Z,70.33
2022-09-26T17:35:12.654Z,71.39
2022-09-26T17:37:40.101Z,70.72
2022-09-26T17:40:17.137Z,70.49
2022-09-26T17:42:47.965Z,69.76
2022-09-26T17:45:15.628Z,70.00
2022-09-26T17:47:43.293Z,69.45
2022-09-26T17:50:25.817Z,69.85
2022-09-26T17:52:54.440Z,71.42
2022-09-26T17:55:23.567Z,72.19
2022-09-26T17:57:52.090Z,70.77
2022-09-26T18:00:20.973Z,71.80
2022-09-26T18:02:57.182Z,71.17
2022-09-26T18:05:30.762Z,69.92
2022-09-26T18:08:01.937Z,70.34
2022-09-26T18:10:34.071Z,70.37
2022-09-26T18:13:09.390Z,69.32
2022-09-26T18:15:41.216Z,69.44
2022-09-26T18:18:16.498Z,68.88
2022-09-26T18:20:53.476Z,70.28
2022-09-26T18:23:30.021Z,70.91
2022-09-26T18:25:59.915Z,73.25
2022-09-26T18:28:30.836Z,71.98
2022-09-26T18:31:00.840Z,71.01
2022-09-26T18:33:29.303Z,70.61
2022-09-26T18:35:58.067Z,70.71
2022-09-26T18:38:26.723Z,72.26
2022-09-26T18:40:58.353Z,71.48
2022-09-26T18:43:37.762Z,68.19
2022-09-26T18:46:16.931Z,67.85
2022-09-26T18:48:46.536Z,68.29
2022-09-26T18:51:14.455Z,68.33
2022-09-26T18:53:42.462Z,68.21
2022-09-26T18:56:32.808Z,69.82
2022-09-26T18:59:29.030Z,71.68
2022-09-26T19:08:49.787Z,69.89
2022-09-26T19:11:21.379Z,71.71
2022-09-26T19:13:53.056Z,69.57
2022-09-26T19:16:21.857Z,68.78
2022-09-26T19:18:49.792Z,68.87
2022-09-26T19:21:36.541Z,67.79
2022-09-26T19:27:09.856Z,68.02
2022-09-26T19:30:05.340Z,68.21
2022-09-26T19:32:47.512Z,67.84
2022-09-26T19:35:34.665Z,67.78
2022-09-26T19:38:05.962Z,67.25
2022-09-26T19:40:33.841Z,67.56
2022-09-26T19:43:01.578Z,68.20
2022-09-26T19:45:32.244Z,66.85
2022-09-26T19:48:00.277Z,68.17
2022-09-26T19:50:29.799Z,67.83
2022-09-26T19:53:03.335Z,69.26
2022-09-26T19:55:31.674Z,67.55
2022-09-26T19:58:07.118Z,67.72
2022-09-26T20:00:41.425Z,66.98
2022-09-26T20:03:31.238Z,68.94
2022-09-26T20:06:01.447Z,68.98
2022-09-26T20:08:30.036Z,67.93
2022-09-26T20:11:02.402Z,68.95
2022-09-26T20:13:57.764Z,70.43
2022-09-26T20:16:44.331Z,69.39
2022-09-26T20:19:20.329Z,69.13
2022-09-26T20:21:51.370Z,68.66
2022-09-26T20:24:19.806Z,68.72
2022-09-26T20:26:48.513Z,68.73
2022-09-26T20:29:16.683Z,68.56
2022-09-26T20:31:44.456Z,70.36
2022-09-26T20:34:12.257Z,70.33
2022-09-26T20:36:42.463Z,70.72
2022-09-26T20:39:30.934Z,72.27
2022-09-26T20:42:02.070Z,72.69
2022-09-26T20:44:33.817Z,72.81
2022-09-26T20:47:04.786Z,75.76
2022-09-26T20:49:44.936Z,75.20
2022-09-26T20:52:20.935Z,76.78
2022-09-26T20:54:48.791Z,77.12
2022-09-26T20:57:17.353Z,77.33
2022-09-26T20:59:45.410Z,76.71
2022-09-26T21:02:35.119Z,77.34
2022-09-26T21:05:03.558Z,77.83
2022-09-26T21:07:32.291Z,82.15
2022-09-26T21:10:00.071Z,82.50
2022-09-26T21:12:27.746Z,82.57
2022-09-26T21:14:55.440Z,82.42
2022-09-26T21:17:28.936Z,82.66
2022-09-26T21:19:56.891Z,83.51
2022-09-26T21:23:01.971Z,86.04
2022-09-26T21:25:32.395Z,84.99
2022-09-26T21:28:13.768Z,84.76
2022-09-26T21:30:42.985Z,89.55
2022-09-26T21:33:13.755Z,90.10
2022-09-26T21:35:42.351Z,86.62
2022-09-26T21:38:12.683Z,87.82
2022-09-26T21:40:43.205Z,85.77
2022-09-26T21:43:17.043Z,83.89
2022-09-26T21:45:45.898Z,85.71
2022-09-26T21:48:18.951Z,83.72
2022-09-26T21:51:05.182Z,78.63
2022-09-26T21:53:38.189Z,76.62
2022-09-26T21:56:13.178Z,77.31
2022-09-26T21:58:41.600Z,78.51
2022-09-26T22:01:09.582Z,79.32
2022-09-26T22:03:37.520Z,79.01
2022-09-26T22:06:09.345Z,78.36
2022-09-26T22:08:38.041Z,77.48
2022-09-26T22:11:09.159Z,77.70
2022-09-26T22:13:39.898Z,76.96
2022-09-26T22:16:12.843Z,76.78
2022-09-26T22:18:41.241Z,77.36
2022-09-26T22:21:10.993Z,76.55
2022-09-26T22:23:38.681Z,77.25
2022-09-26T22:26:06.869Z,78.98
2022-09-26T22:28:34.591Z,78.00
2022-09-26T22:31:04.376Z,77.66
2022-09-26T22:33:33.113Z,77.32
2022-09-26T22:36:01.173Z,77.72
2022-09-26T22:38:28.987Z,77.64
2022-09-26T22:40:58.758Z,78.45
2022-09-26T22:43:27.850Z,78.30
2022-09-26T22:46:10.379Z,77.88
2022-09-26T22:48:41.541Z,76.63
2022-09-26T22:51:09.959Z,77.11
2022-09-26T22:53:39.405Z,76.68
2022-09-26T22:56:09.519Z,77.29
2022-09-26T22:58:48.992Z,77.56
2022-09-26T23:01:22.577Z,77.27
2022-09-26T23:03:52.929Z,79.02
2022-09-26T23:06:22.109Z,80.01
2022-09-26T23:08:50.698Z,82.36
2022-09-26T23:11:30.532Z,81.80
2022-09-26T23:14:06.416Z,79.72
2022-09-26T23:16:37.800Z,80.56
2022-09-26T23:19:09.079Z,82.27
2022-09-26T23:21:37.003Z,84.81
2022-09-26T23:24:07.539Z,86.73
2022-09-26T23:26:39.379Z,83.74
2022-09-26T23:29:12.313Z,81.99
2022-09-26T23:31:46.894Z,83.23
2022-09-26T23:34:19.805Z,82.79
2022-09-26T23:36:50.268Z,83.22
2022-09-26T23:39:21.870Z,82.97
2022-09-26T23:41:57.298Z,82.45
2022-09-26T23:44:28.375Z,83.99
2022-09-26T23:47:07.353Z,87.15
2022-09-26T23:50:09.036Z,85.36
2022-09-26T23:52:27.784Z,85.50
2022-09-26T23:54:57.165Z,84.62
2022-09-26T23:57:33.893Z,85.62
